Time;durP1;ratioP1;P1;durP2;ratioP2;P2;SDS_P1;SDS_P2;PMS_P1;PMS_P2;Temp;Humidity;BMP_temperature;BMP_pressure;BME280_temperature;BME280_humidity;BME280_pressure;Samples;Min_cycle;Max_cycle;Signal;HPM_P1;HPM_P2
2022/10/13 00:00:45;;;;;;;22.88;12.43;;;10.20;99.90;;;9.74;100.00;97780.00;4979197;28;20038;-48
2022/10/13 00:03:11;;;;;;;16.52;11.43;;;10.20;99.90;;;9.77;100.00;97779.09;4974019;28;20026;-45
2022/10/13 00:05:43;;;;;;;21.40;10.98;;;10.30;99.90;;;9.78;100.00;97771.13;4958510;28;20125;-46
2022/10/13 00:08:10;;;;;;;18.63;12.27;;;10.30;99.90;;;9.81;100.00;97780.72;4977153;28;20788;-44
2022/10/13 00:10:38;;;;;;;23.88;13.93;;;10.30;99.90;;;9.86;100.00;97776.19;4972523;28;20042;-46
2022/10/13 00:13:06;;;;;;;23.25;14.23;;;10.40;99.90;;;9.87;100.00;97777.91;4975118;28;20034;-46
2022/10/13 00:15:31;;;;;;;31.40;18.05;;;10.40;99.90;;;9.99;100.00;97787.22;4968241;28;20026;-46
2022/10/13 00:17:57;;;;;;;31.38;18.35;;;10.40;99.90;;;9.99;100.00;97797.78;4968200;28;20038;-45
2022/10/13 00:20:23;;;;;;;31.27;16.55;;;10.50;99.90;;;10.06;100.00;97787.00;4980032;28;20029;-47
2022/10/13 00:22:49;;;;;;;24.92;14.95;;;10.60;99.90;;;10.19;100.00;97787.50;4988818;28;20026;-46
2022/10/13 00:25:14;;;;;;;32.25;18.27;;;10.60;99.90;;;10.22;100.00;97797.13;4992810;28;20522;-46
2022/10/13 00:27:40;;;;;;;36.00;18.73;;;10.70;99.90;;;10.24;100.00;97795.31;4974648;28;20156;-47
2022/10/13 00:30:06;;;;;;;37.97;19.98;;;10.70;99.90;;;10.24;100.00;97795.31;4978300;28;20223;-47
2022/10/13 00:32:32;;;;;;;35.05;17.80;;;10.70;99.90;;;10.26;100.00;97793.47;4985789;28;20391;-44
2022/10/13 00:34:58;;;;;;;33.55;17.08;;;10.80;99.90;;;10.27;100.00;97789.94;4984014;28;20061;-44
2022/10/13 00:37:24;;;;;;;30.00;18.20;;;10.70;99.90;;;10.29;100.00;97793.41;4977720;28;20132;-45
2022/10/13 00:39:50;;;;;;;30.20;18.10;;;10.80;99.90;;;10.25;100.00;97789.13;4983471;28;20049;-45
2022/10/13 00:42:15;;;;;;;38.15;18.92;;;10.80;99.90;;;10.28;100.00;97786.38;4984535;28;20835;-46
2022/10/13 00:45:16;;;;;;;25.73;15.52;;;10.80;99.90;;;10.23;100.00;97789.19;4979639;28;20065;-47
2022/10/13 00:47:48;;;;;;;36.67;17.42;;;10.70;99.90;;;10.19;100.00;97784.03;4978156;28;20044;-43
2022/10/13 00:50:17;;;;;;;;;;;10.70;99.90;;;10.12;100.00;97784.22;4978237;28;20037;-44
2022/10/13 00:52:43;;;;;;;29.90;16.63;;;10.60;99.90;;;10.08;100.00;97779.06;4958152;28;19979;-45
2022/10/13 00:55:12;;;;;;;29.88;15.20;;;10.60;99.90;;;10.04;100.00;97783.56;4977383;28;20128;-47
2022/10/13 00:57:41;;;;;;;29.73;15.32;;;10.60;99.90;;;9.83;100.00;97753.41;4978877;28;21802;-44
2022/10/13 01:00:08;;;;;;;30.23;17.30;;;10.50;99.90;;;10.00;100.00;97787.19;4962205;28;20057;-45
2022/10/13 01:02:37;;;;;;;29.13;18.00;;;10.50;99.90;;;9.96;100.00;97782.03;4975065;28;20297;-44
2022/10/13 01:05:05;;;;;;;30.92;16.63;;;10.50;99.90;;;10.01;100.00;97778.38;4979854;28;20118;-47
2022/10/13 01:07:31;;;;;;;28.20;16.02;;;10.50;99.90;;;10.05;100.00;97781.78;4981174;28;20270;-47
2022/10/13 01:09:59;;;;;;;24.63;14.45;;;10.50;99.90;;;10.05;100.00;97777.41;4959242;28;20087;-44
2022/10/13 01:12:51;;;;;;;28.30;15.93;;;10.60;99.90;;;10.08;100.00;97777.28;4980014;28;20026;-45
2022/10/13 01:15:59;;;;;;;35.90;15.90;;;10.60;99.90;;;9.97;100.00;97757.44;4944136;28;20125;-44
2022/10/13 01:19:07;;;;;;;21.65;13.75;;;10.60;99.90;;;10.03;100.00;97771.31;4977155;28;24558;-46
2022/10/13 01:21:40;;;;;;;21.67;13.93;;;10.60;99.90;;;10.01;100.00;97777.50;4940453;28;20115;-44
2022/10/13 01:24:30;;;;;;;22.17;13.48;;;10.50;99.90;;;9.95;100.00;97783.81;4983581;28;20030;-46
2022/10/13 01:27:22;;;;;;;23.67;13.45;;;10.50;99.90;;;9.87;100.00;97775.25;4981191;28;20103;-47
2022/10/13 01:30:15;;;;;;;22.88;13.95;;;10.40;99.90;;;9.81;100.00;97773.66;4980448;28;20022;-44
2022/10/13 01:32:50;;;;;;;23.25;13.98;;;10.30;99.90;;;9.78;100.00;97773.78;4964051;28;20030;-46
2022/10/13 01:35:36;;;;;;;22.08;12.98;;;10.30;99.90;;;9.73;100.00;97768.63;4979918;28;20033;-48
2022/10/13 01:38:23;;;;;;;24.48;13.98;;;10.30;99.90;;;9.70;100.00;97773.97;4980294;28;20026;-47
2022/10/13 01:41:01;;;;;;;24.25;14.50;;;10.20;99.90;;;9.67;100.00;97768.81;4976704;28;20396;-46
2022/10/13 01:43:37;;;;;;;22.27;14.18;;;10.20;99.90;;;9.63;100.00;97766.28;4958933;28;20054;-48
2022/10/13 01:46:13;;;;;;;22.98;14.05;;;10.10;99.90;;;9.61;100.00;97762.81;4977172;28;20045;-48
2022/10/13 01:48:42;;;;;;;28.15;13.95;;;10.10;99.90;;;9.58;100.00;97766.41;4961126;28;20516;-47
2022/10/13 01:51:13;;;;;;;25.27;14.00;;;10.10;99.90;;;9.51;100.00;97752.56;4964587;28;20065;-47
2022/10/13 01:53:40;;;;;;;25.45;13.75;;;10.00;99.90;;;9.53;100.00;97763.91;4975284;28;20033;-48
2022/10/13 01:56:06;;;;;;;21.90;13.23;;;10.00;99.90;;;9.50;100.00;97761.34;4963422;28;20030;-48
2022/10/13 01:58:34;;;;;;;27.77;15.60;;;10.00;99.90;;;9.43;100.00;97751.88;4983596;28;20026;-48
2022/10/13 02:01:22;;;;;;;27.50;15.45;;;10.00;99.90;;;9.51;100.00;97757.81;4963362;28;20061;-47
2022/10/13 02:04:39;;;;;;;23.95;14.75;;;10.00;99.90;;;9.52;100.00;97745.50;4979773;28;20176;-46
2022/10/13 02:07:33;;;;;;;29.58;15.20;;;10.00;99.90;;;9.51;100.00;97749.03;4966492;28;20109;-44
2022/10/13 02:10:50;;;;;;;25.25;14.90;;;10.00;99.90;;;9.53;100.00;97752.50;4966333;28;20065;-48
2022/10/13 02:13:21;;;;;;;31.65;16.77;;;10.00;99.90;;;9.51;100.00;97749.03;4903838;29;20050;-47
2022/10/13 02:15:51;;;;;;;37.45;19.70;;;10.10;99.90;;;9.58;100.00;97747.97;4895026;29;20028;-48
2022/10/13 02:18:21;;;;;;;30.25;17.02;;;10.10;99.90;;;9.48;100.00;97723.66;4949298;28;20053;-48
2022/10/13 02:20:48;;;;;;;31.75;16.75;;;10.10;99.90;;;9.69;100.00;97745.91;4982115;28;20030;-47
2022/10/13 02:23:16;;;;;;;25.15;14.70;;;10.20;99.90;;;9.77;100.00;97747.47;4968636;28;20395;-47
2022/10/13 02:25:42;;;;;;;26.90;15.73;;;10.20;99.90;;;9.84;100.00;97749.03;4983165;28;20034;-45
2022/10/13 02:28:09;;;;;;;27.63;15.70;;;10.30;99.90;;;9.92;100.00;97749.66;4985397;28;20033;-48
2022/10/13 02:30:39;;;;;;;30.45;15.93;;;10.40;99.90;;;9.99;100.00;97752.97;4976232;28;20149;-47
2022/10/13 02:33:05;;;;;;;30.73;16.65;;;10.50;99.90;;;10.07;100.00;97753.63;4967082;28;20033;-45
2022/10/13 02:35:32;;;;;;;32.78;16.15;;;10.50;99.90;;;10.15;100.00;97758.66;4970039;28;20542;-47
2022/10/13 02:37:58;;;;;;;29.33;15.82;;;10.60;99.90;;;10.23;100.00;97752.28;4988703;28;20038;-47
2022/10/13 02:40:25;;;;;;;28.02;15.75;;;10.70;99.90;;;10.30;100.00;97755.56;4984855;28;20089;-45
2022/10/13 02:42:50;;;;;;;27.05;15.30;;;10.80;99.90;;;10.25;100.00;97733.78;4982038;28;20037;-46
2022/10/13 02:45:16;;;;;;;25.73;15.10;;;10.80;99.90;;;10.38;100.00;97750.13;4976809;28;20507;-47
2022/10/13 02:47:42;;;;;;;34.13;18.00;;;10.90;99.90;;;10.40;100.00;97745.66;4986109;28;20855;-45
2022/10/13 02:50:08;;;;;;;29.20;16.15;;;10.90;99.90;;;10.40;100.00;97750.94;4984879;28;20073;-47
2022/10/13 02:52:34;;;;;;;23.42;13.98;;;10.90;99.90;;;10.38;100.00;97740.41;4973069;28;20080;-47
2022/10/13 02:54:59;;;;;;;26.92;14.95;;;10.90;99.90;;;10.28;100.00;97736.28;4976242;28;20151;-48
2022/10/13 02:57:25;;;;;;;26.10;15.75;;;10.80;99.90;;;10.23;100.00;97741.72;4978366;28;20042;-47
2022/10/13 02:59:51;;;;;;;27.90;14.88;;;10.70;99.90;;;10.17;100.00;97739.25;4980204;28;20567;-47
2022/10/13 03:02:17;;;;;;;24.52;14.85;;;10.70;99.90;;;10.18;100.00;97743.63;4985120;28;20045;-47
2022/10/13 03:04:43;;;;;;;35.63;18.58;;;10.70;99.90;;;10.11;100.00;97731.53;4987702;28;20061;-47
2022/10/13 03:07:09;;;;;;;31.15;16.05;;;10.70;99.90;;;10.17;100.00;97733.97;4991632;28;20525;-47
2022/10/13 03:09:35;;;;;;;32.45;16.05;;;10.70;99.90;;;10.24;100.00;97732.88;4990168;28;20025;-47
2022/10/13 03:12:00;;;;;;;27.45;15.32;;;10.70;99.90;;;10.29;100.00;97736.25;4991019;28;20044;-47
2022/10/13 03:14:26;;;;;;;24.67;14.27;;;10.80;99.90;;;10.34;100.00;97733.53;4985218;28;20045;-48
2022/10/13 03:16:52;;;;;;;27.63;15.57;;;10.80;99.90;;;10.39;100.00;97731.63;4988999;28;20166;-46
2022/10/13 03:19:18;;;;;;;29.05;16.48;;;10.90;99.90;;;10.45;100.00;97733.19;4990584;28;20041;-46
2022/10/13 03:21:43;;;;;;;40.38;19.55;;;10.90;99.90;;;10.53;100.00;97731.16;4981966;28;20033;-47
2022/10/13 03:24:09;;;;;;;30.75;17.05;;;11.00;99.90;;;10.60;100.00;97734.47;4987288;28;20500;-48
2022/10/13 03:26:35;;;;;;;27.90;15.88;;;11.10;99.90;;;10.64;100.00;97729.06;4980243;28;20060;-48
2022/10/13 03:29:00;;;;;;;26.15;15.40;;;11.10;99.90;;;10.68;100.00;97725.41;5003850;23;20140;-62
2022/10/13 03:31:26;;;;;;;33.80;17.92;;;11.20;99.90;;;10.71;100.00;97724.44;4990755;28;20542;-61
2022/10/13 03:33:52;;;;;;;32.22;15.95;;;11.10;99.90;;;10.75;100.00;97722.56;4992300;28;20057;-61
2022/10/13 03:36:18;;;;;;;27.80;16.88;;;11.20;99.90;;;10.77;100.00;97716.34;4988336;28;20432;-62
2022/10/13 03:38:44;;;;;;;25.90;15.50;;;11.30;99.90;;;10.80;100.00;97710.97;4992879;28;20038;-62
2022/10/13 03:41:13;;;;;;;27.55;16.17;;;11.30;99.90;;;10.81;100.00;97710.03;4987146;28;20030;-61
2022/10/13 03:43:40;;;;;;;30.05;16.75;;;11.30;99.90;;;10.82;100.00;97708.25;4986776;28;20112;-61
2022/10/13 03:46:07;;;;;;;31.83;17.27;;;11.30;99.90;;;10.83;100.00;97704.72;4993444;28;20100;-61
2022/10/13 03:48:34;;;;;;;33.95;17.50;;;11.30;99.90;;;10.86;100.00;97704.63;4992824;28;20447;-61
2022/10/13 03:51:05;;;;;;;27.45;15.05;;;11.30;99.90;;;10.90;100.00;97706.25;4989575;28;20113;-61
2022/10/13 03:53:31;;;;;;;34.13;14.95;;;11.30;99.90;;;10.94;100.00;97707.00;4990271;28;20026;-61
2022/10/13 03:55:57;;;;;;;29.30;16.48;;;11.40;99.90;;;10.98;100.00;97708.63;4989739;28;20396;-62
2022/10/13 03:58:24;;;;;;;28.88;14.65;;;11.40;99.90;;;11.00;100.00;97715.59;4992387;28;21697;-61
2022/10/13 04:00:51;;;;;;;22.67;13.50;;;11.50;99.90;;;11.05;100.00;97715.41;4982473;28;20029;-60
2022/10/13 04:03:17;;;;;;;23.33;13.13;;;11.50;99.90;;;11.08;100.00;97717.94;4987764;28;20025;-61
2022/10/13 04:05:43;;;;;;;23.70;13.32;;;11.50;99.90;;;11.11;100.00;97714.34;4985748;28;20144;-60
2022/10/13 04:08:09;;;;;;;25.27;13.75;;;11.60;99.90;;;11.10;100.00;97715.28;4991164;28;20040;-61
2022/10/13 04:10:34;;;;;;;21.80;12.70;;;11.60;99.90;;;11.11;100.00;97723.13;4986657;28;20038;-60
2022/10/13 04:13:00;;;;;;;24.98;13.48;;;11.60;99.90;;;11.12;100.00;97721.34;4988521;28;20026;-60
2022/10/13 04:15:26;;;;;;;21.58;12.63;;;11.60;99.90;;;11.13;100.00;97721.31;4988208;28;20116;-61
2022/10/13 04:17:52;;;;;;;31.33;16.58;;;11.60;99.90;;;11.12;100.00;97716.06;4991112;28;20494;-60
2022/10/13 04:20:18;;;;;;;25.92;14.55;;;11.60;99.90;;;11.15;100.00;97715.97;4986645;28;20967;-61
2022/10/13 04:22:44;;;;;;;21.38;14.50;;;11.60;99.90;;;11.15;100.00;97711.56;4988816;28;20021;-61
2022/10/13 04:25:10;;;;;;;26.58;14.27;;;11.60;99.90;;;11.14;100.00;97707.16;4992369;28;20037;-61
2022/10/13 04:27:38;;;;;;;23.02;13.55;;;11.60;99.90;;;11.16;100.00;97707.13;4990536;28;20049;-60
2022/10/13 04:30:05;;;;;;;23.88;12.50;;;11.60;99.90;;;11.18;100.00;97702.66;4992060;28;20030;-61
2022/10/13 04:32:31;;;;;;;21.70;12.85;;;11.60;99.90;;;11.18;100.00;97713.22;4991646;28;20096;-60
2022/10/13 04:34:57;;;;;;;27.00;13.07;;;11.60;99.90;;;11.19;100.00;97712.31;4994010;28;20570;-61
2022/10/13 04:37:23;;;;;;;26.90;14.65;;;11.60;99.90;;;11.17;100.00;97711.50;4989931;28;20034;-61
2022/10/13 04:39:49;;;;;;;19.88;12.10;;;11.60;99.90;;;11.16;100.00;97709.75;4994462;28;20026;-61
2022/10/13 04:42:15;;;;;;;20.98;12.20;;;11.60;99.90;;;11.12;100.00;97709.00;4992072;28;20041;-61
2022/10/13 04:44:41;;;;;;;18.42;12.20;;;11.60;99.90;;;11.07;100.00;97713.56;4987981;28;20099;-60
2022/10/13 04:47:07;;;;;;;20.35;12.70;;;11.50;99.90;;;11.01;100.00;97713.78;4996395;28;20663;-61
2022/10/13 04:49:33;;;;;;;19.25;12.40;;;11.50;99.90;;;10.94;100.00;97707.84;4991349;28;20042;-60
2022/10/13 04:51:58;;;;;;;21.20;12.35;;;11.50;99.90;;;10.93;100.00;97706.16;4995232;28;20104;-61
2022/10/13 04:54:24;;;;;;;23.65;13.27;;;11.40;99.90;;;10.87;100.00;97701.94;4991487;28;20088;-61
2022/10/13 04:56:50;;;;;;;27.13;15.93;;;11.40;99.90;;;10.86;100.00;97702.00;4994570;28;20029;-61
2022/10/13 04:59:15;;;;;;;18.65;11.88;;;11.30;99.90;;;10.82;100.00;97693.31;4989231;28;20061;-60
2022/10/13 05:01:41;;;;;;;22.10;12.32;;;11.30;99.90;;;10.75;100.00;97691.78;4985260;28;20030;-60
2022/10/13 05:04:08;;;;;;;16.70;11.02;;;11.30;99.90;;;10.74;100.00;97687.41;4993902;28;20092;-60
2022/10/13 05:06:37;;;;;;;20.23;12.73;;;11.30;99.90;;;10.69;100.00;97686.69;4995539;28;20474;-60
2022/10/13 05:09:03;;;;;;;21.13;12.65;;;11.20;99.90;;;10.65;100.00;97685.09;5006071;28;20079;-60
2022/10/13 05:11:29;;;;;;;18.92;11.50;;;11.20;99.90;;;10.63;100.00;97686.91;4998418;28;20034;-60
2022/10/13 05:13:56;;;;;;;21.58;13.20;;;11.10;99.90;;;10.63;100.00;97693.03;4997950;28;20045;-60
2022/10/13 05:16:23;;;;;;;24.25;13.07;;;11.10;99.90;;;10.64;100.00;97693.91;4995092;28;20026;-60
2022/10/13 05:18:52;;;;;;;21.63;13.00;;;11.10;99.90;;;10.63;100.00;97693.03;4999181;28;20048;-60
2022/10/13 05:21:26;;;;;;;19.02;11.55;;;11.10;99.90;;;10.64;100.00;97701.81;4994638;28;20089;-60
2022/10/13 05:23:54;;;;;;;19.33;11.90;;;11.10;99.90;;;10.65;100.00;97701.75;4995894;28;20037;-60
2022/10/13 05:26:26;;;;;;;19.48;11.90;;;11.20;99.90;;;10.70;100.00;97705.13;4993826;28;20071;-60
2022/10/13 05:28:52;;;;;;;28.00;14.77;;;11.10;99.90;;;10.72;100.00;97702.44;4992409;28;20047;-61
2022/10/13 05:31:22;;;;;;;23.40;11.07;;;11.20;99.90;;;10.74;100.00;97695.31;4994778;28;20034;-61
2022/10/13 05:33:49;;;;;;;20.05;12.68;;;11.20;99.90;;;10.77;100.00;97707.56;4994054;28;20168;-61
2022/10/13 05:36:22;;;;;;;21.52;11.90;;;11.30;99.90;;;10.76;100.00;97704.06;4992964;28;20053;-61
2022/10/13 05:38:52;;;;;;;18.98;11.30;;;11.30;99.90;;;10.82;100.00;97709.13;4997748;28;20319;-62
2022/10/13 05:41:18;;;;;;;15.60;10.60;;;11.30;99.90;;;10.84;100.00;97709.94;4998298;28;20036;-60
2022/10/13 05:43:44;;;;;;;21.90;13.70;;;11.30;99.90;;;10.83;100.00;97702.94;4993246;28;20029;-61
2022/10/13 05:46:10;;;;;;;28.75;14.80;;;11.30;99.90;;;10.82;100.00;97714.41;4995834;28;20077;-60
2022/10/13 05:48:37;;;;;;;22.77;13.20;;;11.30;99.90;;;10.81;100.00;97710.03;4996873;28;20407;-61
2022/10/13 05:51:15;;;;;;;20.77;12.30;;;11.30;99.90;;;10.81;100.00;97719.75;4986400;28;20049;-61
2022/10/13 05:53:47;;;;;;;27.65;15.68;;;11.30;99.90;;;10.79;100.00;97714.50;4994535;28;20125;-61
2022/10/13 05:56:18;;;;;;;26.48;15.43;;;11.30;99.90;;;10.80;100.00;97710.09;4997367;28;20029;-60
2022/10/13 05:58:50;;;;;;;32.15;16.63;;;11.30;99.90;;;10.79;100.00;97703.97;4996925;28;20112;-60
2022/10/13 06:01:21;;;;;;;24.83;15.55;;;11.30;99.90;;;10.82;100.00;97703.88;4995749;28;20412;-60
2022/10/13 06:03:48;;;;;;;22.77;14.05;;;11.30;99.90;;;10.85;100.00;97693.19;4989807;28;20141;-60
2022/10/13 06:06:14;;;;;;;20.10;14.18;;;11.30;99.90;;;10.88;100.00;97698.38;4992131;28;20042;-60
2022/10/13 06:08:41;;;;;;;23.73;12.15;;;11.40;99.90;;;10.94;100.00;97689.38;4995039;28;20033;-60
2022/10/13 06:11:07;;;;;;;24.83;13.55;;;11.40;99.90;;;11.01;100.00;97690.03;4996916;28;20347;-60
2022/10/13 06:13:34;;;;;;;19.73;12.85;;;11.50;99.90;;;10.92;100.00;97672.75;4996379;28;20033;-61
2022/10/13 06:15:59;;;;;;;19.95;12.70;;;11.50;99.90;;;11.07;100.00;97688.06;4989813;28;20032;-60
2022/10/13 06:18:25;;;;;;;22.52;13.52;;;11.50;99.90;;;11.08;100.00;97689.78;4994561;28;20026;-60
2022/10/13 06:20:51;;;;;;;24.45;14.52;;;11.60;99.90;;;11.15;100.00;97689.56;4994826;28;20029;-60
2022/10/13 06:23:17;;;;;;;28.05;14.93;;;11.60;99.90;;;11.16;100.00;97686.91;4992573;28;20049;-60
2022/10/13 06:25:52;;;;;;;21.52;13.73;;;11.60;99.90;;;11.21;100.00;97692.84;4993837;28;20553;-60
2022/10/13 06:28:19;;;;;;;25.80;14.63;;;11.70;99.90;;;11.28;100.00;97689.06;4997740;28;20112;-60
2022/10/13 06:30:52;;;;;;;22.58;13.80;;;11.70;99.90;;;11.36;100.00;97694.13;4984897;28;20028;-60
2022/10/13 06:33:18;;;;;;;;;;;11.80;99.90;;;11.37;100.00;97700.25;4998317;28;20034;-60
2022/10/13 06:35:43;;;;;;;25.45;14.05;;;11.90;99.90;;;11.39;100.00;97701.91;4993923;28;19928;-60
2022/10/13 06:38:09;;;;;;;26.38;17.42;;;11.90;99.90;;;11.35;100.00;97691.53;4997298;28;20036;-60
2022/10/13 06:40:35;;;;;;;28.02;16.38;;;11.90;99.90;;;11.43;100.00;97694.72;4993973;28;20032;-59
2022/10/13 06:43:01;;;;;;;24.23;14.02;;;11.90;99.90;;;11.37;100.00;97687.91;4992688;28;20033;-60
2022/10/13 06:45:27;;;;;;;25.42;14.80;;;11.90;99.90;;;11.49;100.00;97691.88;4988759;28;20546;-60
2022/10/13 06:47:54;;;;;;;24.27;14.27;;;12.00;99.90;;;11.52;100.00;97693.53;4991882;28;20415;-60
2022/10/13 06:50:21;;;;;;;20.45;11.82;;;12.00;99.90;;;11.56;100.00;97690.75;4992690;28;20141;-59
2022/10/13 06:52:47;;;;;;;21.63;12.82;;;12.10;99.90;;;11.59;100.00;97684.47;4994294;28;20051;-60
2022/10/13 06:55:12;;;;;;;19.30;12.65;;;12.10;99.90;;;11.64;100.00;97687.81;4990478;28;20426;-60
2022/10/13 06:57:38;;;;;;;23.77;14.77;;;12.10;99.90;;;11.64;100.00;97683.38;4991990;28;20029;-60
2022/10/13 07:00:05;;;;;;;18.52;11.95;;;12.20;99.90;;;11.68;100.00;97683.28;4986721;28;20322;-61
2022/10/13 07:02:31;;;;;;;18.00;11.80;;;12.20;99.90;;;11.71;100.00;97670.81;4989935;28;20033;-61
2022/10/13 07:04:57;;;;;;;22.25;11.43;;;12.20;99.90;;;11.82;100.00;97686.28;4991256;28;20037;-61
2022/10/13 07:07:23;;;;;;;23.52;12.23;;;12.30;99.90;;;11.88;100.00;97688.72;4994203;28;20061;-61
2022/10/13 07:09:49;;;;;;;19.23;11.80;;;12.40;99.90;;;11.94;100.00;97693.78;4996162;28;20129;-61
2022/10/13 07:12:15;;;;;;;19.20;11.60;;;12.40;99.90;;;12.02;100.00;97689.09;4996195;28;20069;-61
2022/10/13 07:14:41;;;;;;;20.75;12.00;;;12.50;99.90;;;12.06;100.00;97689.81;4989869;28;20052;-61
2022/10/13 07:17:07;;;;;;;21.80;11.30;;;12.50;99.90;;;12.19;100.00;97693.69;4992382;28;20740;-61
2022/10/13 07:19:32;;;;;;;18.55;9.95;;;12.60;99.90;;;12.28;100.00;97697.78;4996630;28;20069;-61
2022/10/13 07:21:58;;;;;;;21.42;10.55;;;12.70;99.90;;;12.35;100.00;97693.13;4995266;28;20033;-61
2022/10/13 07:24:24;;;;;;;16.65;10.55;;;12.80;99.90;;;12.41;100.00;97691.06;4998401;28;20491;-61
2022/10/13 07:26:50;;;;;;;20.60;12.43;;;12.90;99.90;;;12.48;100.00;97696.13;4994785;28;20156;-61
2022/10/13 07:29:16;;;;;;;18.23;11.27;;;12.90;99.90;;;12.53;100.00;97688.88;4995661;28;20029;-61
2022/10/13 07:31:44;;;;;;;19.23;10.93;;;13.00;99.90;;;12.59;100.00;97691.25;4995639;28;20061;-61
2022/10/13 07:34:10;;;;;;;22.48;12.10;;;13.10;99.90;;;12.66;100.00;97691.88;4993965;28;20081;-60
2022/10/13 07:36:39;;;;;;;21.42;10.85;;;13.10;99.90;;;12.74;100.00;97688.00;4993285;28;20045;-60
2022/10/13 07:39:05;;;;;;;21.60;11.13;;;13.20;99.90;;;12.83;100.00;97692.06;4994461;28;20041;-60
2022/10/13 07:41:31;;;;;;;23.30;12.43;;;13.30;99.90;;;12.90;100.00;97696.19;4994079;28;20065;-61
2022/10/13 07:43:58;;;;;;;16.33;9.82;;;13.40;99.90;;;13.03;100.00;97687.69;4993283;28;20135;-61
2022/10/13 07:46:24;;;;;;;13.75;8.93;;;13.50;99.90;;;13.15;100.00;97693.38;4993173;28;20041;-61
2022/10/13 07:48:52;;;;;;;12.15;8.63;;;13.60;99.90;;;13.26;100.00;97695.56;4993948;28;20463;-61
2022/10/13 07:51:19;;;;;;;19.50;11.23;;;13.70;99.90;;;13.33;100.00;97690.84;4996702;28;20029;-61
2022/10/13 07:53:45;;;;;;;21.58;11.30;;;13.80;99.90;;;13.38;100.00;97691.53;4993229;28;20041;-61
2022/10/13 07:56:14;;;;;;;27.48;11.38;;;13.90;99.90;;;13.42;100.00;97689.59;4996989;28;20025;-61
2022/10/13 07:58:43;;;;;;;14.85;9.05;;;13.90;99.90;;;13.52;100.00;97685.63;4991790;28;20438;-61
2022/10/13 08:01:10;;;;;;;16.98;9.05;;;14.00;99.90;;;13.61;100.00;97684.38;4994874;28;20033;-61
2022/10/13 08:03:36;;;;;;;18.25;10.63;;;14.00;99.90;;;13.64;100.00;97681.56;4990102;28;20038;-61
2022/10/13 08:06:04;;;;;;;13.10;9.43;;;14.10;99.90;;;13.69;100.00;97685.75;4994570;28;20084;-61
2022/10/13 08:08:31;;;;;;;19.88;8.70;;;14.10;99.90;;;13.68;100.00;97670.75;4994904;28;20041;-61
2022/10/13 08:11:13;;;;;;;13.60;8.82;;;14.20;99.90;;;13.77;100.00;97696.00;4993838;28;20037;-61
2022/10/13 08:13:39;;;;;;;14.95;8.52;;;14.20;99.90;;;13.73;100.00;97678.50;4991625;28;20032;-61
2022/10/13 08:16:05;;;;;;;21.50;10.55;;;14.20;99.90;;;13.56;100.00;97663.34;4989528;28;20290;-61
2022/10/13 08:18:31;;;;;;;17.48;9.57;;;14.10;99.90;;;13.59;100.00;97670.31;4990396;28;20026;-61
2022/10/13 08:21:00;;;;;;;13.48;7.47;;;14.10;99.90;;;13.58;100.00;97663.28;4993636;28;20033;-61
2022/10/13 08:23:26;;;;;;;14.70;8.35;;;14.00;99.90;;;13.57;100.00;97667.75;4989711;28;20613;-61
2022/10/13 08:25:52;;;;;;;19.90;9.45;;;14.00;99.90;;;13.43;100.00;97644.50;4988518;28;20132;-61
2022/10/13 08:28:21;;;;;;;12.90;7.57;;;14.00;99.90;;;13.59;100.00;97665.88;4992102;28;20053;-61
2022/10/13 08:30:49;;;;;;;20.30;10.48;;;14.10;99.90;;;13.56;100.00;97655.41;4986456;28;20034;-61
2022/10/13 08:33:15;;;;;;;15.98;8.32;;;14.10;99.90;;;13.70;100.00;97662.75;4995347;28;20310;-61
2022/10/13 08:35:41;;;;;;;14.65;9.38;;;14.20;99.90;;;13.84;100.00;97656.81;4995639;28;20026;-61
2022/10/13 08:38:07;;;;;;;14.52;9.20;;;14.30;99.90;;;13.94;100.00;97655.44;4996149;28;20034;-61
2022/10/13 08:40:34;;;;;;;18.88;9.50;;;14.40;99.90;;;14.07;100.00;97661.06;4997187;28;20109;-61
2022/10/13 08:43:00;;;;;;;17.10;8.68;;;14.60;99.90;;;14.21;100.00;97669.22;4999090;28;20034;-61
2022/10/13 08:45:29;;;;;;;19.45;9.45;;;14.70;99.90;;;14.20;100.00;97656.88;4984436;28;20029;-60
2022/10/13 08:48:06;;;;;;;13.23;8.35;;;14.80;99.90;;;14.27;100.00;97642.38;4996884;28;20030;-60
2022/10/13 08:50:35;;;;;;;17.05;7.40;;;14.90;99.90;;;14.56;100.00;97656.03;4997458;28;20034;-60
2022/10/13 08:53:11;;;;;;;13.07;8.00;;;15.00;99.90;;;14.72;100.00;97653.53;5001768;28;20030;-60
2022/10/13 08:55:39;;;;;;;14.40;7.70;;;15.20;99.90;;;14.79;100.00;97654.94;4998029;28;20054;-60
2022/10/13 08:58:22;;;;;;;12.85;8.00;;;15.30;99.90;;;14.96;100.00;97656.72;4997843;28;20037;-60
2022/10/13 09:01:08;;;;;;;12.95;7.10;;;15.40;99.90;;;15.14;100.00;97659.41;4992282;28;20056;-60
2022/10/13 09:03:48;;;;;;;14.20;7.35;;;15.60;99.90;;;15.24;100.00;97650.88;5009352;28;20072;-60
2022/10/13 09:06:34;;;;;;;15.32;7.45;;;15.70;99.90;;;15.43;100.00;97649.91;4993264;28;20022;-60
2022/10/13 09:09:07;;;;;;;12.95;6.82;;;15.80;99.90;;;15.46;100.00;97644.44;4998366;28;20033;-60
2022/10/13 09:11:37;;;;;;;9.32;6.03;;;16.00;99.90;;;15.57;100.00;97646.53;4999026;28;20037;-60
2022/10/13 09:14:07;;;;;;;14.40;6.60;;;16.00;99.90;;;15.56;100.00;97642.13;4994240;28;20038;-60
2022/10/13 09:16:43;;;;;;;18.05;6.32;;;16.20;99.90;;;15.72;100.00;97658.13;4995768;28;20087;-60
2022/10/13 09:19:27;;;;;;;16.17;6.97;;;16.20;99.90;;;15.86;100.00;97660.94;4997013;28;20454;-60
2022/10/13 09:21:56;;;;;;;14.40;6.22;;;16.30;99.90;;;15.93;100.00;97657.00;4993793;28;20092;-60
2022/10/13 09:24:25;;;;;;;11.20;5.70;;;16.40;99.90;;;16.01;100.00;97654.81;4996225;28;20088;-60
2022/10/13 09:27:05;;;;;;;13.55;6.13;;;16.40;99.90;;;16.02;100.00;97661.84;4996842;28;20046;-60
2022/10/13 09:29:30;;;;;;;16.27;6.65;;;16.50;99.90;;;16.05;100.00;97658.16;5027457;23;20056;-46
2022/10/13 09:32:19;;;;;;;12.30;5.55;;;16.50;99.90;;;16.09;100.00;97651.72;5010047;28;20034;-50
2022/10/13 09:34:46;;;;;;;10.77;6.10;;;16.50;99.90;;;16.18;100.00;97668.97;5017750;28;20033;-46
2022/10/13 09:37:24;;;;;;;13.57;5.82;;;16.60;99.90;;;16.25;100.00;97661.50;5014017;28;20756;-45
2022/10/13 09:40:19;;;;;;;10.20;5.40;;;16.60;99.90;;;16.26;100.00;97665.88;5013897;28;20032;-47
2022/10/13 09:42:51;;;;;;;10.50;5.32;;;16.70;99.90;;;16.31;100.00;97653.19;5011160;28;20029;-44
2022/10/13 09:45:21;;;;;;;9.38;5.38;;;16.70;99.90;;;16.32;100.00;97657.56;5013589;28;20037;-44
2022/10/13 09:47:56;;;;;;;17.73;6.32;;;16.70;99.90;;;16.34;100.00;97666.31;4999259;28;20033;-45
2022/10/13 09:50:28;;;;;;;7.38;5.07;;;16.70;99.90;;;16.43;100.00;97665.78;4995978;28;20081;-45
2022/10/13 09:53:20;;;;;;;12.00;5.65;;;16.80;99.90;;;16.53;100.00;97659.00;4993970;28;20427;-44
2022/10/13 09:55:47;;;;;;;17.25;6.40;;;16.90;99.90;;;16.56;100.00;97657.97;4990838;28;20090;-44
2022/10/13 09:58:29;;;;;;;11.13;5.53;;;17.00;99.90;;;16.72;100.00;97653.47;4993023;28;20107;-45
2022/10/13 10:00:56;;;;;;;9.02;5.15;;;17.20;99.90;;;16.75;100.00;97658.63;5010865;28;20368;-44
2022/10/13 10:03:34;;;;;;;7.97;4.57;;;17.20;99.90;;;16.78;100.00;97655.81;4992300;28;20029;-43
2022/10/13 10:06:05;;;;;;;10.63;5.40;;;17.20;99.90;;;16.80;100.00;97651.22;4992817;28;20018;-43
2022/10/13 10:09:14;;;;;;;9.65;5.07;;;17.20;99.90;;;16.84;100.00;97648.44;4993842;28;20279;-43
2022/10/13 10:11:44;;;;;;;14.40;5.93;;;17.30;99.90;;;16.86;100.00;97655.38;5010510;28;20115;-43
2022/10/13 10:14:38;;;;;;;10.75;5.18;;;17.30;99.90;;;16.87;100.00;97649.13;4990722;28;20059;-47